Bodega Marine Reserve, California Weather observations

Data are for 10 minute period ending at time listed.
 Day   Time   Solar   Ave.   Ave.  Ave.  Vector  Max.   Baro.   Total    
  of    of     Rad.   Air    Rel.  Wind   Wind   Wind  Press.  Precip.   
Year   Day            Temp.  Hum.  Speed  Dir.   Gust                    
2015   (PST)  Kw/m2    F      %     mph   deg.    mph    mb.     in.     
-------------------------------------------------------------------------
  27    7:10   0.00   53.0    82    6.3    95     8.6   1016.6    0.00 
  27    7:20   0.00   54.4    84    3.9   110     7.7   1016.9    0.00 
  27    7:30   0.00   55.0    82    3.1   112     6.7   1017.3    0.00 
  27    7:40   0.00   55.0    84    5.3   141     7.6   1017.6    0.00 
  27    7:50   0.00   55.2    84    5.1   134     6.8   1017.6    0.00 
  27    8:00   0.01   56.0    87    8.0   138    13.0   1018.0    0.00 
  27    8:10   0.01   57.1    88   11.0   138    14.0   1018.0    0.00 
  27    8:20   0.01   57.1    89   10.7   136    13.7   1018.0    0.00 
  27    8:30   0.02   57.2    88   11.0   140    15.3   1018.3    0.00 
  27    8:40   0.03   57.4    88   14.0   144    19.1   1018.3    0.00 
  27    8:50   0.04   57.6    87   13.8   144    18.6   1018.3    0.00 
  27    9:00   0.05   57.7    86   13.9   143    18.1   1018.6    0.00 
  27    9:10   0.06   57.8    86   11.9   145    16.4   1018.6    0.00 
  27    9:20   0.07   58.0    85   12.6   141    16.2   1019.0    0.00 
  27    9:30   0.07   57.8    86   11.0   136    14.2   1019.0    0.00 
  27    9:40   0.08   57.8    86    9.3   132    12.5   1019.3    0.00 
  27    9:50   0.09   57.9    85   10.6   135    15.0   1019.3    0.00 
  27   10:00   0.09   58.0    85   12.8   139    17.2   1019.3    0.00 
  27   10:10   0.09   58.1    84   13.4   142    18.0   1019.3    0.00 
  27   10:20   0.10   58.3    83   12.8   144    16.9   1019.6    0.00 
  27   10:30   0.12   58.6    82   13.3   144    17.2   1019.6    0.00 
  27   10:40   0.14   58.9    80   13.3   143    17.2   1020.0    0.00 
  27   10:50   0.16   59.2    80   11.8   144    15.8   1020.0    0.00 
  27   11:00   0.17   59.5    78   11.8   140    16.1   1020.3    0.00 
  27   11:10   0.17   59.4    78   10.8   140    15.9   1020.3    0.00 
  27   11:20   0.17   59.6    77   11.1   140    14.9   1020.3    0.00 
  27   11:30   0.19   59.8    76   11.0   141    15.3   1020.3    0.00 
  27   11:40   0.20   60.0    76   11.2   143    16.9   1020.3    0.00 
  27   11:50   0.20   60.2    74   13.4   150    18.7   1020.0    0.00 
  27   12:00   0.20   60.2    73   13.3   153    19.4   1020.0    0.00 
  27   12:10   0.21   60.3    72   12.6   152    18.9   1020.0    0.00 
  27   12:20   0.23   60.6    72   10.1   156    13.7   1020.0    0.00 
  27   12:30   0.24   61.0    71    9.6   160    14.4   1020.0    0.00 
  27   12:40   0.23   61.0    71    8.7   154    13.1   1020.0    0.00 
  27   12:50   0.22   60.7    72    9.0   147    12.8   1020.0    0.00 
  27   13:00   0.22   60.6    72    9.5   150    12.7   1020.0    0.00 
  27   13:10   0.21   60.6    72    9.8   154    13.6   1020.0    0.00 
  27   13:20   0.19   60.8    71    9.6   156    13.4   1020.0    0.00 
  27   13:30   0.16   60.4    72    9.3   149    14.8   1020.0    0.00 
  27   13:40   0.15   60.0    75    7.4   140     9.9   1020.0    0.00 
  27   13:50   0.14   59.5    77    7.0   136     9.8   1020.0    0.00 
  27   14:00   0.14   59.4    77    6.3   132     8.9   1020.0    0.00 
  27   14:10   0.14   59.3    77    5.5   132     7.4   1020.0    0.00 
  27   14:20   0.14   59.5    76    6.9   131     8.9   1020.3    0.00 
  27   14:30   0.14   59.4    77    6.2   136     8.3   1020.0    0.00 
  27   14:40   0.12   59.3    77    5.6   128     8.3   1020.0    0.00 
  27   14:50   0.10   59.4    77    3.0   112     5.3   1020.3    0.00 
  27   15:00   0.09   59.2    77    3.1   127     5.3   1020.3    0.00 
  27   15:10   0.08   59.0    78    4.3   138     7.0   1020.3    0.00 
  27   15:20   0.08   59.2    78    5.2   136     6.9   1020.3    0.00 
  27   15:30   0.08   59.0    79    4.8   130     6.3   1020.3    0.00 
  27   15:40   0.09   58.8    80    4.8   127     6.8   1020.3    0.00 
  27   15:50   0.09   58.8    80    5.7   131     7.8   1020.3    0.00 
  27   16:00   0.08   58.7    81    6.0   128     8.1   1020.3    0.00 
  27   16:10   0.08   58.6    81    4.8   127     6.6   1020.3    0.00 
  27   16:20   0.07   58.5    82    4.6   127     7.1   1020.3    0.00 
  27   16:30   0.07   58.3    82    4.3   130     6.1   1020.3    0.00 
  27   16:40   0.05   58.1    83    3.8   138     4.7   1020.3    0.00 
  27   16:50   0.03   57.8    83    3.5   138     4.4   1020.3    0.00 
  27   17:00   0.02   57.7    83    2.0   126     3.6   1020.3    0.00 
  27   17:10   0.01   57.4    83    1.1   118     2.7   1020.3    0.00 
  27   17:20   0.01   57.1    83    0.4   109     1.3   1020.3    0.00 
  27   17:30   0.00   56.8    84    0.0   114     0.4   1020.3    0.00 
  27   17:40   0.00   56.3    84    0.1   138     1.2   1020.3    0.00 
  27   17:50   0.00   55.9    84    1.5   132     2.7   1020.3    0.00 
  27   18:00   0.00   56.0    85    1.1   147     1.8   1020.3    0.00 
  27   18:10   0.00   56.0    84    1.0   134     1.7   1020.3    0.00 
  27   18:20   0.00   55.8    85    1.5   132     2.3   1020.3    0.00 
  27   18:30   0.00   55.8    85    0.8   134     1.5   1020.3    0.00 
  27   18:40   0.00   55.8    85    1.2   124     1.8   1020.7    0.00 
  27   18:50   0.00   55.8    84    1.1   149     1.6   1020.7    0.00 
  27   19:00   0.00   55.6    84    1.6   160     2.1   1020.7    0.00 
  27   19:10   0.00   55.4    84    1.2   156     1.9   1020.7    0.00 
  27   19:20   0.00   55.7    84    1.2   147     1.8   1020.7    0.00 
  27   19:30   0.00   55.7    83    0.9   146     1.5   1020.7    0.00 
  27   19:40   0.00   55.7    83    1.1   154     1.8   1021.0    0.00 
  27   19:50   0.00   55.5    82    1.5   162     1.9   1021.0    0.00 
  27   20:00   0.00   54.8    83    1.0   150     1.3   1021.0    0.00 
  27   20:10   0.00   55.0    83    1.5   140     2.1   1021.0    0.00 
  27   20:20   0.00   55.1    82    2.3   155     2.7   1021.0    0.00 
  27   20:30   0.00   54.9    82    2.5   155     3.4   1021.0    0.00 
  27   20:40   0.00   54.5    83    2.6   155     3.1   1021.0    0.00 
  27   20:50   0.00   54.2    84    2.5   153     3.2   1021.3    0.00 
  27   21:00   0.00   54.3    84    2.4   150     3.4   1021.3    0.00 
  27   21:10   0.00   54.7    83    2.5   150     3.1   1021.3    0.00 
  27   21:20   0.00   54.8    83    2.7   149     3.4   1021.3    0.00 
  27   21:30   0.00   54.7    83    2.6   158     3.7   1021.3    0.00 
  27   21:40   0.00   54.5    83    2.2   147     3.1   1021.3    0.00 
  27   21:50   0.00   54.9    82    2.5   156     3.3   1021.3    0.00 
  27   22:00   0.00   54.9    82    3.7   157     5.0   1021.3    0.00 
  27   22:10   0.00   54.9    83    3.0   157     4.5   1021.3    0.00 
  27   22:20   0.00   55.3    83    2.0   143     3.2   1021.7    0.00 
  27   22:30   0.00   55.4    82    1.8   128     3.3   1021.7    0.00 
  27   22:40   0.00   55.5    82    2.1   116     3.1   1021.7    0.00 
  27   22:50   0.00   55.5    82    2.6   107     3.8   1021.7    0.00 
  27   23:00   0.00   55.2    83    1.8   112     3.0   1021.7    0.00 
  27   23:10   0.00   54.6    84    1.5   136     2.5   1021.7    0.00 
  27   23:20   0.00   54.4    85    2.2   144     2.9   1021.7    0.00 
  27   23:30   0.00   55.3    83    2.9   148     3.5   1021.7    0.00 
  27   23:40   0.00   54.8    82    3.4   155     4.0   1022.0    0.00 
  27   23:50   0.00   54.4    83    3.8   151     4.5   1022.0    0.00 
  28    0:00   0.00   54.0    84    3.6   153     4.4   1021.7    0.00 
  28    0:10   0.00   53.8    84    3.3   155     4.2   1021.7    0.00 
  28    0:20   0.00   53.7    84    3.0   150     3.6   1021.3    0.00 
  28    0:30   0.00   53.1    84    2.7   160     3.8   1021.3    0.00 
  28    0:40   0.00   52.5    84    2.4   150     3.6   1021.3    0.00 
  28    0:50   0.00   51.9    85    1.4   143     2.7   1021.0    0.00 
  28    1:00   0.00   51.3    86    0.2   100     0.8   1021.0    0.00 
  28    1:10   0.00   51.5    87    0.4    84     1.6   1021.0    0.00 
  28    1:20   0.00   52.3    87    1.1   101     2.3   1021.0    0.00 
  28    1:30   0.00   52.4    85    0.1   127     0.9   1021.0    0.00 
  28    1:40   0.00   52.2    84    0.0   146     0.7   1021.0    0.00 
  28    1:50   0.00   50.8    85    0.4    78     1.7   1021.0    0.00 
  28    2:00   0.00   51.1    85    1.5   139     2.6   1021.0    0.00 
  28    2:10   0.00   50.2    86    1.1   146     2.0   1020.7    0.00 
  28    2:20   0.00   50.9    87    3.7   157     5.7   1020.7    0.00 
  28    2:30   0.00   51.7    87    4.8   151     6.5   1021.0    0.00 
  28    2:40   0.00   52.4    86    4.9   138     6.6   1021.0    0.00 
  28    2:50   0.00   52.3    85    4.5   158     6.4   1021.0    0.00 
  28    3:00   0.00   52.1    86    4.7   159     6.0   1021.0    0.00 
  28    3:10   0.00   52.2    86    4.7   153     6.5   1021.0    0.00 
  28    3:20   0.00   52.7    85    4.1   159     6.4   1021.0    0.00 
  28    3:30   0.00   53.0    84    4.9   143     8.1   1021.0    0.00 
  28    3:40   0.00   52.7    84    6.4   140     8.1   1021.0    0.00 
  28    3:50   0.00   52.5    85    6.7   144     8.3   1021.0    0.00 
  28    4:00   0.00   52.4    86    6.3   144     8.3   1021.0    0.00 
  28    4:10   0.00   52.4    86    6.6   143     8.6   1021.0    0.00 
  28    4:20   0.00   53.3    84    5.4   119     8.6   1021.0    0.00 
  28    4:30   0.00   53.8    82    4.4   116     6.8   1021.0    0.00 
  28    4:40   0.00   54.0    83    4.2   132     7.5   1021.3    0.00 
  28    4:50   0.00   53.5    85    4.6   139     7.2   1021.3    0.00 
  28    5:00   0.00   53.5    85    2.8   107     3.9   1021.0    0.00 
  28    5:10   0.00   53.3    85    3.5   123     4.9   1021.0    0.00 
  28    5:20   0.00   52.8    85    2.7   157     3.7   1021.0    0.00 
  28    5:30   0.00   52.4    86    3.3   130     4.2   1021.0    0.00 
  28    5:40   0.00   52.3    87    5.0    90     7.2   1021.0    0.00 
  28    5:50   0.00   52.2    87    6.5    87     8.3   1021.0    0.00 
  28    6:00   0.00   52.9    86    4.8   109     8.0   1021.3    0.00 
  28    6:10   0.00   53.5    85    5.1   131     7.2   1021.0    0.00 
  28    6:20   0.00   53.3    86    3.9   132     6.1   1021.0    0.00 
  28    6:30   0.00   52.8    86    3.6   124     6.6   1021.0    0.00 
  28    6:40   0.00   52.7    86    3.4   130     5.8   1021.3    0.00 
  28    6:50   0.00   52.3    85    4.2   104     6.6   1021.0    0.00 
  28    7:00   0.00   51.8    86    3.8   123     6.6   1021.0    0.00 

Return to Bodega Marine Reserve graphs page.


Western Regional Climate Center,wrcc@dri.edu